Cypress Mill, Texas
Current Conditions -  °F | °C
As of 3:55 PM on Friday 28 Nov 2014 (Local Time) from KDZB Reporting Station
Clear Clear  
Wind Chill: 71°   Ceiling: Unl
Heat Index: 71°   Visibility: 10mi
Dew Point: 45°   Wind: 7mph
Humidity: 40%   Direction: 190°S
Pressure: 30.11"   Gusts: 18mph
Location:  30.3215°N, 98.3242°W
Report Text: KDZB 282155Z AUTO 19006G16KT 10SM CLR 22/07 A3011 RMK AO2 T02160073
Loading
Personal Weather Stations






























Interactive Weather Map New forecast layout! Learn more

10-Day Weather Forecast

Advertisements
Track Severe Weather on mobile